createdAt,value
2019-04-22T00:00:44.480Z,44.00
2019-04-22T00:03:16.218Z,43.80
2019-04-22T00:06:05.297Z,43.60
2019-04-22T00:08:43.069Z,43.40
2019-04-22T00:11:19.613Z,44.40
2019-04-22T00:13:47.279Z,43.50
2019-04-22T00:16:19.280Z,44.30
2019-04-22T00:19:01.477Z,45.30
2019-04-22T00:21:19.537Z,45.80
2019-04-22T00:23:53.020Z,46.10
2019-04-22T00:26:23.410Z,47.10
2019-04-22T00:28:59.227Z,46.60
2019-04-22T00:31:33.229Z,46.30
2019-04-22T00:34:06.753Z,46.40
2019-04-22T00:36:35.230Z,45.80
2019-04-22T00:39:18.447Z,47.30
2019-04-22T00:41:43.791Z,46.40
2019-04-22T00:44:19.210Z,46.90
2019-04-22T00:46:46.793Z,46.50
2019-04-22T00:49:58.237Z,47.30
2019-04-22T00:51:52.675Z,46.50
2019-04-22T00:54:26.014Z,47.10
2019-04-22T00:56:51.977Z,48.30
2019-04-22T00:59:23.868Z,48.60
2019-04-22T01:02:02.034Z,48.80
2019-04-22T01:04:34.647Z,47.80
2019-04-22T01:06:57.573Z,48.40
2019-04-22T01:09:38.881Z,48.40
2019-04-22T01:12:12.180Z,48.50
2019-04-22T01:14:37.915Z,48.30
2019-04-22T01:17:06.473Z,49.10
2019-04-22T01:19:45.143Z,49.00
2019-04-22T01:22:12.844Z,49.00
2019-04-22T01:24:40.257Z,49.70
2019-04-22T01:27:04.868Z,49.20
2019-04-22T01:29:30.399Z,48.60
2019-04-22T01:31:52.681Z,49.70
2019-04-22T01:34:36.357Z,50.00
2019-04-22T01:37:14.164Z,49.20
2019-04-22T01:39:49.977Z,49.40
2019-04-22T01:42:16.821Z,49.00
2019-04-22T01:44:50.628Z,49.30
2019-04-22T01:49:59.597Z,49.70
2019-04-22T01:52:29.481Z,47.50
2019-04-22T01:55:07.285Z,49.10
2019-04-22T01:57:30.408Z,49.40
2019-04-22T01:59:59.025Z,49.20
2019-04-22T02:02:38.456Z,49.50
2019-04-22T02:07:34.138Z,49.80
2019-04-22T02:10:11.170Z,49.10
2019-04-22T02:12:43.461Z,50.40
2019-04-22T02:15:12.028Z,50.00
2019-04-22T02:17:46.119Z,49.80
2019-04-22T02:20:32.999Z,50.40
2019-04-22T02:23:40.382Z,49.10
2019-04-22T02:25:50.955Z,50.20
2019-04-22T02:28:28.043Z,50.40
2019-04-22T02:31:16.886Z,50.20
2019-04-22T02:38:53.438Z,49.40
2019-04-22T02:43:51.920Z,48.40
2019-04-22T02:46:24.225Z,49.70
2019-04-22T02:48:55.389Z,49.50
2019-04-22T02:51:23.011Z,47.40
2019-04-22T03:06:34.815Z,46.00
2019-04-22T03:11:33.439Z,47.90
2019-04-22T03:16:31.970Z,48.50
2019-04-22T03:19:02.905Z,47.10
2019-04-22T03:21:31.218Z,48.10
2019-04-22T03:29:04.736Z,47.70
2019-04-22T03:39:44.830Z,47.80
2019-04-22T03:49:47.469Z,50.20
2019-04-22T04:00:15.564Z,51.80
2019-04-22T04:02:21.315Z,51.70
2019-04-22T04:04:43.577Z,51.40
2019-04-22T04:07:42.590Z,52.00
2019-04-22T04:09:50.006Z,53.10
2019-04-22T04:14:57.582Z,55.40
2019-04-22T04:17:50.531Z,57.60
2019-04-22T04:22:55.971Z,58.50
2019-04-22T04:25:25.001Z,56.30
2019-04-22T04:30:14.805Z,55.90
2019-04-22T04:37:52.520Z,56.90
2019-04-22T04:40:11.689Z,57.80
2019-04-22T04:42:46.415Z,58.60
2019-04-22T04:47:49.151Z,59.60
2019-04-22T04:53:09.874Z,57.80
2019-04-22T04:57:57.575Z,57.50
2019-04-22T05:05:26.600Z,57.60
2019-04-22T05:08:00.852Z,56.30
2019-04-22T05:10:35.114Z,54.70
2019-04-22T05:12:57.380Z,54.70
2019-04-22T05:15:27.645Z,56.70
2019-04-22T05:17:58.140Z,57.20
2019-04-22T05:20:44.077Z,57.70
2019-04-22T05:22:51.110Z,58.80
2019-04-22T05:25:27.017Z,59.50
2019-04-22T05:27:57.849Z,59.70
2019-04-22T05:30:32.058Z,58.30
2019-04-22T05:33:01.806Z,58.50
2019-04-22T05:38:13.365Z,59.90
2019-04-22T05:40:40.862Z,61.60
2019-04-22T05:43:12.140Z,60.80
2019-04-22T05:45:39.959Z,61.50
2019-04-22T05:48:13.763Z,63.20
2019-04-22T05:50:45.327Z,61.60
2019-04-22T05:53:14.891Z,64.30
2019-04-22T05:55:48.910Z,63.80
2019-04-22T05:58:15.647Z,60.70
2019-04-22T06:01:23.528Z,61.70
2019-04-22T06:03:28.762Z,60.30
2019-04-22T06:05:55.609Z,61.20
2019-04-22T06:08:29.591Z,62.20
2019-04-22T06:11:05.193Z,59.70
2019-04-22T06:13:27.587Z,59.90
2019-04-22T06:16:03.686Z,58.70
2019-04-22T06:18:33.365Z,58.70
2019-04-22T06:21:11.483Z,57.00
2019-04-22T06:23:42.660Z,54.20
2019-04-22T06:31:15.968Z,52.10
2019-04-22T06:33:48.394Z,47.30
2019-04-22T06:36:15.843Z,48.80
2019-04-22T06:38:59.205Z,48.60
2019-04-22T06:41:21.290Z,46.70
2019-04-22T06:43:54.407Z,44.50
2019-04-22T06:46:21.157Z,45.80
2019-04-22T06:48:52.480Z,46.70
2019-04-22T06:51:27.606Z,46.30
2019-04-22T06:53:58.668Z,45.50
2019-04-22T06:56:23.785Z,44.40
2019-04-22T06:58:59.044Z,44.20
2019-04-22T07:01:28.231Z,44.80
2019-04-22T07:03:58.537Z,46.00
2019-04-22T07:06:35.461Z,47.00
2019-04-22T07:09:23.776Z,49.60
2019-04-22T07:11:36.311Z,48.80
2019-04-22T07:14:06.986Z,49.70
2019-04-22T07:16:43.509Z,50.60
2019-04-22T07:19:13.834Z,49.90
2019-04-22T07:21:43.999Z,47.80
2019-04-22T07:24:34.520Z,47.00
2019-04-22T07:26:44.970Z,46.90
2019-04-22T07:29:21.812Z,45.40
2019-04-22T07:31:58.752Z,45.80
2019-04-22T07:34:27.741Z,46.40
2019-04-22T07:36:59.121Z,43.40
2019-04-22T07:39:32.139Z,42.90
2019-04-22T07:41:59.520Z,42.00
2019-04-22T07:44:32.470Z,43.20
2019-04-22T07:47:07.493Z,41.80
2019-04-22T07:52:05.086Z,39.50
2019-04-22T07:54:31.677Z,38.30
2019-04-22T07:57:18.382Z,38.50
2019-04-22T07:59:40.834Z,39.80
2019-04-22T08:02:10.172Z,42.40
2019-04-22T08:04:56.010Z,39.00
2019-04-22T08:07:12.638Z,41.10
2019-04-22T08:09:53.935Z,42.40
2019-04-22T08:12:12.957Z,42.10
2019-04-22T08:14:45.676Z,40.10
2019-04-22T08:17:47.883Z,38.70
2019-04-22T08:19:53.166Z,39.40
2019-04-22T08:22:24.056Z,35.00
2019-04-22T08:24:58.616Z,36.80
2019-04-22T08:27:22.417Z,38.90
2019-04-22T08:32:38.046Z,40.10
2019-04-22T08:35:04.575Z,38.20
2019-04-22T08:40:09.593Z,29.90
2019-04-22T08:45:30.444Z,31.70
2019-04-22T08:47:42.376Z,33.90
2019-04-22T08:52:40.618Z,35.90
2019-04-22T08:55:20.857Z,36.10
2019-04-22T08:58:06.749Z,37.40
2019-04-22T09:00:14.729Z,36.80
2019-04-22T09:05:40.304Z,36.20
2019-04-22T09:07:53.869Z,36.40
2019-04-22T09:10:24.410Z,35.40
2019-04-22T09:13:02.454Z,35.80
2019-04-22T09:15:26.424Z,36.00
2019-04-22T09:20:27.647Z,37.70
2019-04-22T09:23:02.674Z,38.00
2019-04-22T09:25:29.865Z,38.30
2019-04-22T09:28:00.775Z,36.90
2019-04-22T09:33:09.633Z,36.60
2019-04-22T09:35:49.836Z,36.30
2019-04-22T09:40:43.215Z,35.50
2019-04-22T09:43:19.621Z,36.40
2019-04-22T09:45:43.200Z,35.70
2019-04-22T09:48:18.431Z,34.60
2019-04-22T09:50:49.236Z,32.10
2019-04-22T09:53:22.244Z,28.90
2019-04-22T09:55:51.112Z,30.50
2019-04-22T09:58:26.535Z,28.30
2019-04-22T10:01:17.216Z,27.60
2019-04-22T10:03:36.795Z,25.90
2019-04-22T10:06:21.093Z,24.70
2019-04-22T10:08:52.960Z,25.40
2019-04-22T10:11:20.002Z,25.30
2019-04-22T10:13:47.604Z,25.70
2019-04-22T10:16:17.359Z,28.60
2019-04-22T10:18:46.347Z,31.50
2019-04-22T10:21:27.432Z,30.00
2019-04-22T10:23:54.784Z,29.10
2019-04-22T10:26:22.075Z,27.20
2019-04-22T10:28:59.467Z,27.00
2019-04-22T10:31:29.531Z,27.10
2019-04-22T10:33:49.729Z,28.10
2019-04-22T10:36:05.645Z,28.50
2019-04-22T10:38:36.628Z,29.50
2019-04-22T10:41:08.279Z,34.40
2019-04-22T10:43:39.155Z,37.20
2019-04-22T10:46:12.150Z,39.10
2019-04-22T10:48:42.315Z,39.90
2019-04-22T10:51:12.732Z,40.30
2019-04-22T10:53:43.798Z,41.20
2019-04-22T10:56:14.854Z,41.80
2019-04-22T10:58:44.800Z,41.70
2019-04-22T11:01:15.796Z,41.60
2019-04-22T11:03:45.758Z,41.50
2019-04-22T11:06:17.127Z,43.00
2019-04-22T11:08:52.758Z,42.80
2019-04-22T11:11:30.096Z,45.10
2019-04-22T11:13:51.936Z,45.20
2019-04-22T11:16:23.416Z,44.10
2019-04-22T11:18:53.710Z,44.20
2019-04-22T11:21:23.587Z,45.00
2019-04-22T11:23:54.584Z,44.60
2019-04-22T11:26:25.928Z,45.20
2019-04-22T11:28:56.885Z,45.00
2019-04-22T11:31:28.193Z,45.30
2019-04-22T11:33:58.552Z,45.90
2019-04-22T11:36:30.606Z,44.60
2019-04-22T11:39:03.553Z,44.90
2019-04-22T11:41:33.786Z,44.80
2019-04-22T11:44:05.307Z,45.30
2019-04-22T11:46:35.626Z,45.40
2019-04-22T11:49:05.934Z,45.40
2019-04-22T11:51:36.116Z,45.90
2019-04-22T11:54:07.192Z,47.30
2019-04-22T11:56:37.070Z,46.90
2019-04-22T11:59:08.731Z,46.60
2019-04-22T12:01:39.048Z,46.30
2019-04-22T12:04:09.694Z,45.60
2019-04-22T12:06:40.174Z,44.60
2019-04-22T12:09:12.197Z,45.50
2019-04-22T12:11:42.083Z,45.80
2019-04-22T12:14:11.908Z,44.30
2019-04-22T12:16:41.789Z,44.90
2019-04-22T12:19:11.702Z,43.80
2019-04-22T12:21:41.594Z,42.50
2019-04-22T12:24:11.423Z,42.90
2019-04-22T12:26:42.350Z,42.90
2019-04-22T12:29:13.209Z,42.70
2019-04-22T12:31:43.202Z,43.10
2019-04-22T12:34:13.339Z,43.60
2019-04-22T12:36:44.704Z,43.30
2019-04-22T12:39:15.661Z,43.40
2019-04-22T12:41:46.375Z,43.10
2019-04-22T12:44:17.992Z,43.50
2019-04-22T12:46:48.129Z,42.80
2019-04-22T12:49:18.255Z,42.30
2019-04-22T12:51:49.265Z,44.40
2019-04-22T12:54:19.449Z,43.70
2019-04-22T12:56:49.270Z,42.80
2019-04-22T12:59:19.355Z,44.20
2019-04-22T13:01:51.002Z,44.10
2019-04-22T13:04:22.947Z,43.50
2019-04-22T13:06:53.616Z,44.50
2019-04-22T13:09:23.504Z,43.20
2019-04-22T13:11:55.041Z,44.40
2019-04-22T13:14:25.140Z,43.50
2019-04-22T13:16:55.177Z,41.80
2019-04-22T13:19:26.857Z,41.30
2019-04-22T13:21:56.637Z,41.70
2019-04-22T13:24:27.858Z,41.70
2019-04-22T13:26:59.127Z,42.60
2019-04-22T13:29:29.032Z,42.20
2019-04-22T13:32:00.203Z,43.10
2019-04-22T13:34:39.826Z,43.30
2019-04-22T13:37:03.205Z,43.50
2019-04-22T13:39:33.473Z,42.70
2019-04-22T13:42:07.515Z,42.70
2019-04-22T13:44:35.817Z,43.40
2019-04-22T13:47:26.932Z,43.60
2019-04-22T13:50:06.072Z,42.10
2019-04-22T13:52:46.378Z,43.80
2019-04-22T13:55:08.484Z,43.70
2019-04-22T13:57:34.373Z,44.10
2019-04-22T13:59:48.969Z,44.90
2019-04-22T14:02:19.878Z,44.60
2019-04-22T14:04:52.679Z,43.20
2019-04-22T14:07:23.081Z,43.50
2019-04-22T14:09:54.090Z,44.70
2019-04-22T14:12:24.654Z,44.90
2019-04-22T14:14:56.257Z,43.90
2019-04-22T14:17:27.101Z,43.80
2019-04-22T14:19:58.106Z,45.00
2019-04-22T14:22:28.367Z,45.50
2019-04-22T14:24:58.870Z,45.50
2019-04-22T14:27:40.663Z,45.50
2019-04-22T14:30:00.242Z,45.70
2019-04-22T14:32:31.828Z,46.60
2019-04-22T14:35:02.968Z,46.50
2019-04-22T14:37:34.197Z,46.20
2019-04-22T14:40:07.747Z,46.10
2019-04-22T14:42:56.036Z,47.10
2019-04-22T14:45:58.739Z,46.60
2019-04-22T14:48:08.604Z,46.40
2019-04-22T14:50:32.845Z,46.80
2019-04-22T14:53:04.159Z,47.30
2019-04-22T14:55:22.641Z,47.50
2019-04-22T14:57:46.938Z,47.60
2019-04-22T15:00:18.118Z,47.20
2019-04-22T15:02:48.115Z,47.00
2019-04-22T15:05:18.612Z,46.70
2019-04-22T15:07:49.817Z,46.60
2019-04-22T15:10:20.191Z,46.70
2019-04-22T15:12:53.410Z,47.50
2019-04-22T15:15:42.054Z,46.80
2019-04-22T15:18:11.680Z,44.40
2019-04-22T15:20:56.534Z,45.50
2019-04-22T15:23:28.671Z,45.70
2019-04-22T15:25:58.961Z,46.40
2019-04-22T15:28:29.345Z,46.40
2019-04-22T15:30:59.561Z,45.90
2019-04-22T15:33:29.665Z,45.40
2019-04-22T15:35:59.533Z,45.30
2019-04-22T15:38:30.199Z,46.30
2019-04-22T15:41:00.943Z,47.30
2019-04-22T15:43:35.078Z,46.90
2019-04-22T15:46:04.018Z,46.80
2019-04-22T15:48:35.976Z,46.60
2019-04-22T15:51:06.848Z,46.00
2019-04-22T15:53:37.963Z,45.60
2019-04-22T15:56:08.543Z,45.60
2019-04-22T15:58:39.620Z,46.00
2019-04-22T16:01:17.777Z,45.30
2019-04-22T16:03:42.705Z,45.00
2019-04-22T16:06:12.686Z,45.80
2019-04-22T16:08:43.754Z,44.90
2019-04-22T16:11:14.023Z,44.60
2019-04-22T16:13:46.370Z,44.80
2019-04-22T16:16:16.549Z,44.90
2019-04-22T16:18:48.597Z,45.60
2019-04-22T16:21:30.100Z,46.00
2019-04-22T16:23:52.104Z,47.10
2019-04-22T16:26:39.913Z,47.70
2019-04-22T16:29:15.819Z,47.30
2019-04-22T16:31:47.454Z,47.80
2019-04-22T16:34:19.595Z,48.70
2019-04-22T16:36:49.436Z,49.50
2019-04-22T16:39:20.606Z,50.00
2019-04-22T16:41:50.932Z,50.50
2019-04-22T16:44:22.699Z,50.20
2019-04-22T16:46:53.065Z,51.00
2019-04-22T16:49:23.549Z,51.80
2019-04-22T16:51:54.122Z,52.20
2019-04-22T16:54:24.451Z,52.70
2019-04-22T16:56:54.378Z,52.70
2019-04-22T16:59:24.533Z,52.80
2019-04-22T17:01:58.826Z,53.60
2019-04-22T17:04:46.572Z,53.00
2019-04-22T17:07:20.346Z,52.90
2019-04-22T17:09:50.369Z,53.30
2019-04-22T17:12:21.611Z,53.50
2019-04-22T17:14:58.039Z,53.20
2019-04-22T17:17:24.527Z,53.20
2019-04-22T17:19:57.530Z,53.90
2019-04-22T17:22:27.568Z,54.30
2019-04-22T17:24:58.278Z,54.00
2019-04-22T17:27:30.994Z,54.00
2019-04-22T17:30:00.053Z,53.70
2019-04-22T17:32:31.628Z,52.60
2019-04-22T17:35:02.244Z,53.00
2019-04-22T17:37:35.500Z,53.10
2019-04-22T17:40:24.441Z,53.30
2019-04-22T17:42:55.200Z,53.30
2019-04-22T17:45:33.567Z,53.70
2019-04-22T17:48:22.312Z,54.70
2019-04-22T17:50:59.941Z,54.00
2019-04-22T17:53:34.851Z,54.10
2019-04-22T17:56:02.528Z,56.10
2019-04-22T17:58:39.417Z,55.70
2019-04-22T18:01:02.717Z,55.30
2019-04-22T18:03:24.125Z,55.10
2019-04-22T18:05:53.244Z,55.80
2019-04-22T18:08:44.207Z,54.80
2019-04-22T18:11:10.551Z,55.30
2019-04-22T18:13:44.321Z,55.50
2019-04-22T18:16:15.147Z,55.90
2019-04-22T18:18:48.974Z,56.40
2019-04-22T18:21:10.488Z,56.50
2019-04-22T18:23:32.370Z,56.30
2019-04-22T18:26:18.537Z,56.20
2019-04-22T18:28:49.286Z,56.90
2019-04-22T18:31:15.277Z,56.90
2019-04-22T18:33:48.948Z,56.70
2019-04-22T18:36:21.273Z,56.30
2019-04-22T18:38:58.705Z,56.20
2019-04-22T18:41:23.687Z,56.40
2019-04-22T18:44:00.511Z,56.40
2019-04-22T18:46:28.882Z,56.60
2019-04-22T18:49:01.784Z,56.40
2019-04-22T18:51:43.577Z,56.50
2019-04-22T18:54:21.253Z,56.90
2019-04-22T18:56:46.526Z,57.10
2019-04-22T18:59:10.537Z,57.10
2019-04-22T19:01:33.549Z,56.50
2019-04-22T19:04:11.561Z,56.40
2019-04-22T19:07:00.294Z,56.40
2019-04-22T19:09:35.016Z,56.60
2019-04-22T19:12:20.996Z,56.70
2019-04-22T19:14:41.512Z,56.40
2019-04-22T19:17:12.171Z,56.30
2019-04-22T19:19:56.118Z,55.70
2019-04-22T19:22:03.751Z,55.40
2019-04-22T19:24:34.377Z,54.90
2019-04-22T19:27:12.762Z,54.80
2019-04-22T19:29:48.780Z,54.90
2019-04-22T19:32:18.447Z,55.20
2019-04-22T19:34:46.399Z,55.70
2019-04-22T19:37:13.219Z,56.90
2019-04-22T19:39:52.609Z,56.60
2019-04-22T19:42:25.572Z,56.20
2019-04-22T19:44:53.213Z,55.90
2019-04-22T19:47:38.849Z,56.10
2019-04-22T19:49:58.099Z,57.00
2019-04-22T19:52:24.942Z,57.00
2019-04-22T19:54:59.764Z,56.60
2019-04-22T19:57:22.428Z,56.40
2019-04-22T19:59:50.834Z,56.60
2019-04-22T20:02:43.481Z,56.90
2019-04-22T20:05:25.694Z,57.70
2019-04-22T20:07:41.705Z,58.10
2019-04-22T20:10:22.438Z,57.30
2019-04-22T20:12:51.540Z,56.70
2019-04-22T20:15:19.970Z,56.40
2019-04-22T20:18:18.829Z,56.30
2019-04-22T20:20:27.694Z,56.10
2019-04-22T20:22:52.401Z,56.00
2019-04-22T20:25:16.798Z,56.30
2019-04-22T20:28:04.125Z,56.00
2019-04-22T20:30:28.179Z,55.80
2019-04-22T20:32:56.649Z,55.90
2019-04-22T20:35:33.031Z,55.80
2019-04-22T20:38:02.856Z,55.50
2019-04-22T20:40:36.090Z,56.00
2019-04-22T20:43:15.012Z,56.00
2019-04-22T20:45:43.609Z,56.20
2019-04-22T20:48:03.125Z,56.50
2019-04-22T20:50:41.339Z,56.90
2019-04-22T20:53:18.653Z,56.50
2019-04-22T20:55:41.971Z,56.60
2019-04-22T20:58:18.093Z,56.80
2019-04-22T21:00:40.725Z,56.50
2019-04-22T21:03:13.215Z,56.70
2019-04-22T21:05:44.519Z,57.80
2019-04-22T21:08:23.813Z,57.00
2019-04-22T21:10:45.419Z,57.10
2019-04-22T21:13:20.815Z,57.40
2019-04-22T21:15:59.339Z,57.60
2019-04-22T21:18:19.110Z,57.60
2019-04-22T21:20:57.951Z,57.90
2019-04-22T21:23:23.227Z,57.80
2019-04-22T21:25:58.008Z,58.00
2019-04-22T21:28:31.271Z,58.30
2019-04-22T21:30:57.271Z,58.40
2019-04-22T21:33:19.492Z,58.50
2019-04-22T21:36:22.030Z,58.50
2019-04-22T21:38:32.837Z,58.60
2019-04-22T21:41:01.794Z,58.70
2019-04-22T21:43:40.409Z,58.60
2019-04-22T21:46:01.253Z,58.90
2019-04-22T21:48:37.280Z,58.80
2019-04-22T21:51:04.782Z,58.60
2019-04-22T21:53:41.407Z,58.60
2019-04-22T21:56:23.630Z,58.80
2019-04-22T21:58:41.291Z,59.60
2019-04-22T22:01:38.351Z,59.30
2019-04-22T22:04:14.862Z,60.50
2019-04-22T22:06:15.255Z,61.20
2019-04-22T22:08:56.782Z,61.90
2019-04-22T22:11:27.738Z,61.20
2019-04-22T22:13:55.181Z,63.20
2019-04-22T22:16:24.496Z,67.00
2019-04-22T22:19:05.518Z,65.50
2019-04-22T22:21:43.416Z,65.50
2019-04-22T22:24:08.937Z,65.40
2019-04-22T22:26:35.152Z,64.70
2019-04-22T22:29:08.907Z,64.60
2019-04-22T22:31:41.614Z,66.20
2019-04-22T22:34:09.775Z,66.70
2019-04-22T22:36:29.649Z,67.30
2019-04-22T22:39:03.366Z,70.20
2019-04-22T22:41:18.347Z,70.60
2019-04-22T22:43:51.122Z,70.40
2019-04-22T22:46:29.639Z,70.30
2019-04-22T22:49:10.041Z,70.70
2019-04-22T22:51:51.792Z,70.40
2019-04-22T22:54:12.004Z,70.40
2019-04-22T22:56:46.968Z,69.10
2019-04-22T22:59:18.248Z,68.90
2019-04-22T23:01:49.270Z,68.60
2019-04-22T23:04:16.513Z,68.20
2019-04-22T23:06:53.325Z,68.20
2019-04-22T23:09:13.468Z,67.70
2019-04-22T23:14:21.914Z,67.40
2019-04-22T23:16:37.863Z,66.90
2019-04-22T23:19:06.464Z,67.30
2019-04-22T23:21:39.694Z,67.30
2019-04-22T23:24:23.795Z,68.60
2019-04-22T23:27:00.249Z,71.80
2019-04-22T23:29:23.763Z,76.30
2019-04-22T23:31:59.651Z,76.40
2019-04-22T23:34:32.781Z,77.40
2019-04-22T23:37:19.195Z,77.60
2019-04-22T23:42:41.116Z,76.70
2019-04-22T23:44:56.977Z,79.50
2019-04-22T23:47:18.527Z,78.30
2019-04-22T23:49:56.501Z,78.60
2019-04-22T23:52:31.967Z,77.90
2019-04-22T23:55:06.812Z,77.70
2019-04-22T23:57:42.078Z,77.00
